Time,TemperatureF,DewpointF,PressureIn,WindDirection,WindDirectionDegrees,WindSpeedMPH,WindSpeedGustMPH,Humidity,HourlyPrecipIn,Conditions,Clouds,dailyrainin,SoftwareType,DateUTC
2013-08-04 00:01:00,63.1,57.6,30.05,North,-999,0.0,0.0,82,0.00,,,0.00,pywws,2013-08-04 07:01:00,
2013-08-04 00:06:00,63.3,57.4,30.05,North,-999,0.0,0.0,81,0.00,,,0.00,pywws,2013-08-04 07:06:00,
2013-08-04 00:11:00,63.1,57.2,30.05,North,-999,0.0,0.0,81,0.00,,,0.00,pywws,2013-08-04 07:11:00,
2013-08-04 00:16:00,63.1,57.2,30.05,North,-999,0.0,0.0,81,0.00,,,0.00,pywws,2013-08-04 07:16:00,
2013-08-04 00:21:00,62.8,56.9,30.05,North,-999,0.0,0.0,81,0.00,,,0.00,pywws,2013-08-04 07:21:00,
2013-08-04 00:26:00,62.4,56.8,30.05,North,-999,0.0,0.0,82,0.00,,,0.00,pywws,2013-08-04 07:26:00,
2013-08-04 00:31:00,62.2,56.7,30.05,North,-999,0.0,0.0,82,0.00,,,0.00,pywws,2013-08-04 07:31:00,
2013-08-04 00:36:00,61.9,56.3,30.05,North,-999,0.0,0.0,82,0.00,,,0.00,pywws,2013-08-04 07:36:00,
2013-08-04 00:41:00,61.7,56.1,30.05,North,-999,0.0,0.0,82,0.00,,,0.00,pywws,2013-08-04 07:41:00,
2013-08-04 00:46:00,61.2,56.0,30.05,North,-999,0.0,0.0,83,0.00,,,0.00,pywws,2013-08-04 07:46:00,
2013-08-04 00:51:00,61.0,55.8,30.04,North,-999,0.0,0.0,83,0.00,,,0.00,pywws,2013-08-04 07:51:00,
2013-08-04 00:56:00,61.0,55.8,30.04,North,-999,0.0,0.0,83,0.00,,,0.00,pywws,2013-08-04 07:56:00,
2013-08-04 01:01:00,61.0,55.8,30.04,North,-999,0.0,0.0,83,0.00,,,0.00,pywws,2013-08-04 08:01:00,
2013-08-04 01:06:00,61.0,55.8,30.04,North,-999,0.0,0.0,83,0.00,,,0.00,pywws,2013-08-04 08:06:00,
2013-08-04 01:11:00,61.0,55.8,30.04,North,-999,0.0,0.0,83,0.00,,,0.00,pywws,2013-08-04 08:11:00,
2013-08-04 01:16:00,60.8,55.6,30.04,North,-999,0.0,0.0,83,0.00,,,0.00,pywws,2013-08-04 08:16:00,
2013-08-04 01:21:00,60.8,55.6,30.04,North,-999,0.0,0.0,83,0.00,,,0.00,pywws,2013-08-04 08:21:00,
2013-08-04 01:26:00,60.8,55.6,30.04,North,-999,0.0,0.0,83,0.00,,,0.00,pywws,2013-08-04 08:26:00,
2013-08-04 01:31:00,60.4,55.6,30.03,North,-999,0.0,0.0,84,0.00,,,0.00,pywws,2013-08-04 08:31:00,
2013-08-04 01:36:00,60.4,55.6,30.03,North,-999,0.0,0.0,84,0.00,,,0.00,pywws,2013-08-04 08:36:00,
2013-08-04 01:41:00,60.3,55.4,30.04,North,-999,0.0,0.0,84,0.00,,,0.00,pywws,2013-08-04 08:41:00,
2013-08-04 01:46:00,60.1,55.2,30.03,North,-999,0.0,0.0,84,0.00,,,0.00,pywws,2013-08-04 08:46:00,
2013-08-04 01:51:00,60.1,55.2,30.03,North,-999,0.0,0.0,84,0.00,,,0.00,pywws,2013-08-04 08:51:00,
2013-08-04 01:56:00,59.9,55.4,30.03,North,-999,0.0,0.0,85,0.00,,,0.00,pywws,2013-08-04 08:56:00,
2013-08-04 02:01:00,59.9,55.4,30.04,North,-999,0.0,0.0,85,0.00,,,0.00,pywws,2013-08-04 09:01:00,
2013-08-04 02:06:00,59.7,55.2,30.03,North,-999,0.0,0.0,85,0.00,,,0.00,pywws,2013-08-04 09:06:00,
2013-08-04 02:16:00,59.7,55.5,30.04,North,-999,0.0,0.0,86,0.00,,,0.00,pywws,2013-08-04 09:16:00,
2013-08-04 02:26:00,59.9,55.4,30.03,North,-999,0.0,0.0,85,0.00,,,0.00,pywws,2013-08-04 09:26:00,
2013-08-04 02:31:00,59.9,55.4,30.04,North,-999,0.0,0.0,85,0.00,,,0.00,pywws,2013-08-04 09:31:00,
2013-08-04 02:36:00,59.9,55.4,30.04,North,-999,0.0,0.0,85,0.00,,,0.00,pywws,2013-08-04 09:36:00,
2013-08-04 02:41:00,60.3,55.7,30.04,North,-999,0.0,0.0,85,0.00,,,0.00,pywws,2013-08-04 09:41:00,
2013-08-04 02:46:00,60.3,55.7,30.04,North,-999,0.0,0.0,85,0.00,,,0.00,pywws,2013-08-04 09:46:00,
2013-08-04 02:56:00,60.3,55.7,30.04,North,-999,0.0,0.0,85,0.00,,,0.00,pywws,2013-08-04 09:56:00,
2013-08-04 03:06:00,60.1,55.9,30.04,North,-999,0.0,0.0,86,0.00,,,0.00,pywws,2013-08-04 10:06:00,
2013-08-04 03:11:00,60.4,55.9,30.04,North,-999,0.0,0.0,85,0.00,,,0.00,pywws,2013-08-04 10:11:00,
2013-08-04 03:16:00,60.4,55.9,30.04,North,-999,0.0,0.0,85,0.00,,,0.00,pywws,2013-08-04 10:16:00,
2013-08-04 03:21:00,60.4,55.9,30.03,North,-999,0.0,0.0,85,0.00,,,0.00,pywws,2013-08-04 10:21:00,
2013-08-04 03:31:00,60.3,55.4,30.03,North,-999,0.0,0.0,84,0.00,,,0.00,pywws,2013-08-04 10:31:00,
2013-08-04 03:36:00,60.1,55.2,30.03,North,-999,0.0,0.0,84,0.00,,,0.00,pywws,2013-08-04 10:36:00,
2013-08-04 03:41:00,59.9,55.1,30.03,North,-999,0.0,0.0,84,0.00,,,0.00,pywws,2013-08-04 10:41:00,
2013-08-04 03:46:00,59.9,55.1,30.03,North,-999,0.0,0.0,84,0.00,,,0.00,pywws,2013-08-04 10:46:00,
2013-08-04 03:51:00,59.9,55.4,30.03,North,-999,0.0,0.0,85,0.00,,,0.00,pywws,2013-08-04 10:51:00,
2013-08-04 03:56:00,60.1,55.6,30.03,North,-999,0.0,0.0,85,0.00,,,0.00,pywws,2013-08-04 10:56:00,
2013-08-04 04:01:00,60.1,55.6,30.03,North,-999,0.0,0.0,85,0.00,,,0.00,pywws,2013-08-04 11:01:00,
2013-08-04 04:06:00,60.1,55.6,30.03,North,-999,0.0,0.0,85,0.00,,,0.00,pywws,2013-08-04 11:06:00,
2013-08-04 04:11:00,60.1,55.6,30.03,North,-999,0.0,0.0,85,0.00,,,0.00,pywws,2013-08-04 11:11:00,
2013-08-04 04:16:00,60.3,55.7,30.03,North,-999,0.0,0.0,85,0.00,,,0.00,pywws,2013-08-04 11:16:00,
2013-08-04 04:21:00,60.1,55.6,30.03,North,-999,0.0,0.0,85,0.00,,,0.00,pywws,2013-08-04 11:21:00,
2013-08-04 04:26:00,60.3,55.7,30.03,North,-999,0.0,0.0,85,0.00,,,0.00,pywws,2013-08-04 11:26:00,
2013-08-04 04:31:00,60.1,55.6,30.03,North,-999,0.0,0.0,85,0.00,,,0.00,pywws,2013-08-04 11:31:00,
2013-08-04 04:36:00,60.1,55.6,30.03,North,-999,0.0,0.0,85,0.00,,,0.00,pywws,2013-08-04 11:36:00,
2013-08-04 04:41:00,60.1,55.6,30.03,North,-999,0.0,0.0,85,0.00,,,0.00,pywws,2013-08-04 11:41:00,
2013-08-04 04:46:00,60.1,55.6,30.03,North,-999,0.0,0.0,85,0.00,,,0.00,pywws,2013-08-04 11:46:00,
2013-08-04 04:51:00,60.1,55.6,30.03,North,-999,0.0,0.0,85,0.00,,,0.00,pywws,2013-08-04 11:51:00,
2013-08-04 04:56:00,60.1,55.6,30.03,North,-999,0.0,0.0,85,0.00,,,0.00,pywws,2013-08-04 11:56:00,
2013-08-04 05:01:00,60.1,55.6,30.03,North,-999,0.0,0.0,85,0.00,,,0.00,pywws,2013-08-04 12:01:00,
2013-08-04 05:06:00,60.1,55.6,30.03,North,-999,0.0,0.0,85,0.00,,,0.00,pywws,2013-08-04 12:06:00,
2013-08-04 05:11:00,60.1,55.6,30.03,North,-999,0.0,0.0,85,0.00,,,0.00,pywws,2013-08-04 12:11:00,
2013-08-04 05:16:00,59.9,55.4,30.03,North,-999,0.0,0.0,85,0.00,,,0.00,pywws,2013-08-04 12:16:00,
2013-08-04 05:21:00,59.9,55.4,30.03,North,-999,0.0,0.0,85,0.00,,,0.00,pywws,2013-08-04 12:21:00,
2013-08-04 05:26:00,59.9,55.4,30.03,North,-999,0.0,0.0,85,0.00,,,0.00,pywws,2013-08-04 12:26:00,
2013-08-04 05:31:00,59.9,55.4,30.04,North,-999,0.0,0.0,85,0.00,,,0.00,pywws,2013-08-04 12:31:00,
2013-08-04 05:36:00,59.9,55.4,30.03,North,-999,0.0,0.0,85,0.00,,,0.00,pywws,2013-08-04 12:36:00,
2013-08-04 05:41:00,59.9,55.4,30.04,North,-999,0.0,0.0,85,0.00,,,0.00,pywws,2013-08-04 12:41:00,
2013-08-04 05:46:00,59.7,55.2,30.04,North,-999,0.0,0.0,85,0.00,,,0.00,pywws,2013-08-04 12:46:00,
2013-08-04 05:51:00,59.5,55.0,30.04,North,-999,0.0,0.0,85,0.00,,,0.00,pywws,2013-08-04 12:51:00,
2013-08-04 05:56:00,59.4,55.2,30.04,North,-999,0.0,0.0,86,0.00,,,0.00,pywws,2013-08-04 12:56:00,
2013-08-04 06:01:00,59.4,55.2,30.04,North,-999,0.0,0.0,86,0.00,,,0.00,pywws,2013-08-04 13:01:00,
2013-08-04 06:06:00,59.4,55.2,30.04,North,-999,0.0,0.0,86,0.00,,,0.00,pywws,2013-08-04 13:06:00,
2013-08-04 06:11:00,59.4,55.2,30.04,North,-999,0.0,0.0,86,0.00,,,0.00,pywws,2013-08-04 13:11:00,
2013-08-04 06:16:00,59.5,55.3,30.04,North,-999,0.0,0.0,86,0.00,,,0.00,pywws,2013-08-04 13:16:00,
2013-08-04 06:21:00,59.5,55.3,30.04,North,-999,0.0,0.0,86,0.00,,,0.00,pywws,2013-08-04 13:21:00,
2013-08-04 06:26:00,59.7,55.5,30.04,North,-999,0.0,0.0,86,0.00,,,0.00,pywws,2013-08-04 13:26:00,
2013-08-04 06:31:00,59.7,55.5,30.04,North,-999,0.0,0.0,86,0.00,,,0.00,pywws,2013-08-04 13:31:00,
2013-08-04 06:36:00,59.7,55.5,30.04,North,-999,0.0,0.0,86,0.00,,,0.00,pywws,2013-08-04 13:36:00,
2013-08-04 06:41:00,59.7,55.5,30.04,North,-999,0.0,0.0,86,0.00,,,0.00,pywws,2013-08-04 13:41:00,
2013-08-04 06:46:00,59.9,55.7,30.04,North,-999,0.0,0.0,86,0.00,,,0.00,pywws,2013-08-04 13:46:00,
2013-08-04 06:51:00,59.9,55.7,30.04,North,-999,0.0,0.0,86,0.00,,,0.00,pywws,2013-08-04 13:51:00,
2013-08-04 06:56:00,60.1,55.9,30.04,North,-999,0.0,0.0,86,0.00,,,0.00,pywws,2013-08-04 13:56:00,
2013-08-04 07:01:00,60.1,55.9,30.04,North,-999,0.0,0.0,86,0.00,,,0.00,pywws,2013-08-04 14:01:00,
2013-08-04 07:11:00,60.3,56.1,30.05,North,-999,0.0,0.0,86,0.00,,,0.00,pywws,2013-08-04 14:11:00,
2013-08-04 07:16:00,60.3,55.7,30.04,North,-999,0.0,0.0,85,0.00,,,0.00,pywws,2013-08-04 14:16:00,
2013-08-04 07:26:00,60.3,55.7,30.05,North,-999,0.0,0.0,85,0.00,,,0.00,pywws,2013-08-04 14:26:00,
2013-08-04 07:31:00,60.3,55.7,30.04,North,-999,0.0,0.0,85,0.00,,,0.00,pywws,2013-08-04 14:31:00,
2013-08-04 07:36:00,60.4,55.9,30.04,North,-999,0.0,0.0,85,0.00,,,0.00,pywws,2013-08-04 14:36:00,
2013-08-04 07:46:00,60.6,55.8,30.05,North,-999,0.0,0.0,84,0.00,,,0.00,pywws,2013-08-04 14:46:00,
2013-08-04 07:51:00,60.8,55.6,30.05,North,-999,0.0,0.0,83,0.00,,,0.00,pywws,2013-08-04 14:51:00,
2013-08-04 07:56:00,61.0,55.8,30.04,North,-999,0.0,0.0,83,0.00,,,0.00,pywws,2013-08-04 14:56:00,
2013-08-04 08:01:00,61.0,55.8,30.05,North,-999,0.0,0.0,83,0.00,,,0.00,pywws,2013-08-04 15:01:00,
2013-08-04 08:06:00,61.2,56.0,30.05,North,-999,0.0,0.0,83,0.00,,,0.00,pywws,2013-08-04 15:06:00,
2013-08-04 08:11:00,61.0,55.8,30.05,North,-999,0.0,0.0,83,0.00,,,0.00,pywws,2013-08-04 15:11:00,
2013-08-04 08:16:00,61.2,56.0,30.05,SE,135,0.7,1.6,83,0.00,,,0.00,pywws,2013-08-04 15:16:00,
2013-08-04 08:21:00,61.2,55.6,30.05,North,-999,0.0,0.0,82,0.00,,,0.00,pywws,2013-08-04 15:21:00,
2013-08-04 08:26:00,61.2,55.6,30.05,North,-999,0.0,0.0,82,0.00,,,0.00,pywws,2013-08-04 15:26:00,
2013-08-04 08:31:00,61.7,56.1,30.05,North,-999,0.0,0.0,82,0.00,,,0.00,pywws,2013-08-04 15:31:00,
2013-08-04 08:36:00,61.9,56.3,30.05,North,-999,0.0,0.0,82,0.00,,,0.00,pywws,2013-08-04 15:36:00,
2013-08-04 08:41:00,61.7,56.1,30.05,North,-999,0.0,0.0,82,0.00,,,0.00,pywws,2013-08-04 15:41:00,
2013-08-04 08:46:00,61.9,56.3,30.05,North,-999,0.0,0.0,82,0.00,,,0.00,pywws,2013-08-04 15:46:00,
2013-08-04 08:51:00,62.2,56.7,30.05,North,-999,0.0,0.0,82,0.00,,,0.00,pywws,2013-08-04 15:51:00,
2013-08-04 08:56:00,62.6,56.7,30.05,North,-999,0.0,0.0,81,0.00,,,0.00,pywws,2013-08-04 15:56:00,
2013-08-04 09:01:00,61.9,56.0,30.04,SE,135,0.7,1.6,81,0.00,,,0.00,pywws,2013-08-04 16:01:00,
2013-08-04 09:06:00,61.9,56.0,30.05,SE,135,0.7,1.6,81,0.00,,,0.00,pywws,2013-08-04 16:06:00,
2013-08-04 09:11:00,62.6,56.3,30.04,North,-999,0.0,0.0,80,0.00,,,0.00,pywws,2013-08-04 16:11:00,
2013-08-04 09:16:00,63.0,56.3,30.04,North,-999,0.0,0.0,79,0.00,,,0.00,pywws,2013-08-04 16:16:00,
2013-08-04 09:21:00,62.8,56.2,30.04,North,-999,0.0,0.0,79,0.00,,,0.00,pywws,2013-08-04 16:21:00,
2013-08-04 09:26:00,63.1,56.2,30.04,North,-999,0.0,0.7,78,0.00,,,0.00,pywws,2013-08-04 16:26:00,
2013-08-04 09:31:00,63.7,56.7,30.04,North,-999,0.0,0.0,78,0.00,,,0.00,pywws,2013-08-04 16:31:00,
2013-08-04 09:36:00,63.9,56.9,30.04,North,-999,0.0,0.0,78,0.00,,,0.00,pywws,2013-08-04 16:36:00,
2013-08-04 09:41:00,64.2,57.2,30.04,North,-999,0.0,0.0,78,0.00,,,0.00,pywws,2013-08-04 16:41:00,
2013-08-04 09:46:00,64.8,57.4,30.04,North,-999,0.0,0.0,77,0.00,,,0.00,pywws,2013-08-04 16:46:00,
2013-08-04 09:51:00,63.9,56.5,30.04,North,-999,0.0,0.0,77,0.00,,,0.00,pywws,2013-08-04 16:51:00,
2013-08-04 09:56:00,64.4,57.0,30.04,North,-999,0.0,0.0,77,0.00,,,0.00,pywws,2013-08-04 16:56:00,
2013-08-04 10:01:00,63.7,56.3,30.04,North,-999,0.0,0.0,77,0.00,,,0.00,pywws,2013-08-04 17:01:00,
2013-08-04 10:06:00,63.5,56.2,30.03,North,-999,0.0,0.0,77,0.00,,,0.00,pywws,2013-08-04 17:06:00,
2013-08-04 10:11:00,63.9,56.5,30.03,SE,135,3.1,3.1,77,0.00,,,0.00,pywws,2013-08-04 17:11:00,
2013-08-04 10:16:00,64.6,57.2,30.03,SE,135,2.2,3.1,77,0.00,,,0.00,pywws,2013-08-04 17:16:00,
2013-08-04 10:21:00,64.0,57.0,30.03,SE,135,2.2,3.1,78,0.00,,,0.00,pywws,2013-08-04 17:21:00,
2013-08-04 10:26:00,64.6,57.6,30.03,SE,135,2.2,3.1,78,0.00,,,0.00,pywws,2013-08-04 17:26:00,
2013-08-04 10:31:00,64.8,57.7,30.03,SE,135,0.7,1.6,78,0.00,,,0.00,pywws,2013-08-04 17:31:00,
2013-08-04 10:36:00,65.1,58.1,30.03,North,-999,0.0,2.2,78,0.00,,,0.00,pywws,2013-08-04 17:36:00,
2013-08-04 10:41:00,66.2,58.4,30.03,SE,135,0.7,1.6,76,0.00,,,0.00,pywws,2013-08-04 17:41:00,
2013-08-04 10:46:00,66.9,59.1,30.03,SE,135,2.2,3.1,76,0.00,,,0.00,pywws,2013-08-04 17:46:00,
2013-08-04 10:51:00,67.3,59.1,30.03,SE,135,0.7,1.6,75,0.00,,,0.00,pywws,2013-08-04 17:51:00,
2013-08-04 10:56:00,68.0,59.4,30.03,SE,135,0.7,3.1,74,0.00,,,0.00,pywws,2013-08-04 17:56:00,
2013-08-04 11:01:00,67.8,59.2,30.03,SE,135,0.7,2.2,74,0.00,,,0.00,pywws,2013-08-04 18:01:00,
2013-08-04 11:06:00,67.8,59.2,30.03,SE,135,0.7,2.2,74,0.00,,,0.00,pywws,2013-08-04 18:06:00,
2013-08-04 11:11:00,68.4,59.0,30.03,SE,135,2.2,3.8,72,0.00,,,0.00,pywws,2013-08-04 18:11:00,
2013-08-04 11:16:00,68.9,59.1,30.03,SE,135,1.6,3.1,71,0.00,,,0.00,pywws,2013-08-04 18:16:00,
2013-08-04 11:21:00,69.3,59.4,30.03,SE,135,3.1,3.8,71,0.00,,,0.00,pywws,2013-08-04 18:21:00,
2013-08-04 11:26:00,69.1,59.3,30.02,SE,135,1.6,2.2,71,0.00,,,0.00,pywws,2013-08-04 18:26:00,
2013-08-04 11:31:00,70.2,59.9,30.02,SE,135,0.7,2.2,70,0.00,,,0.00,pywws,2013-08-04 18:31:00,
2013-08-04 11:36:00,69.6,59.4,30.02,SE,135,0.7,2.2,70,0.00,,,0.00,pywws,2013-08-04 18:36:00,
2013-08-04 11:41:00,69.6,59.4,30.02,SE,135,2.2,3.1,70,0.00,,,0.00,pywws,2013-08-04 18:41:00,
2013-08-04 11:46:00,70.0,59.3,30.02,SE,135,2.2,3.8,69,0.00,,,0.00,pywws,2013-08-04 18:46:00,
2013-08-04 11:51:00,70.0,58.9,30.02,SE,135,1.6,2.2,68,0.00,,,0.00,pywws,2013-08-04 18:51:00,
2013-08-04 11:56:00,70.3,59.3,30.02,North,-999,0.0,1.6,68,0.00,,,0.00,pywws,2013-08-04 18:56:00,
2013-08-04 12:01:00,70.5,59.0,30.02,SE,135,1.6,2.2,67,0.00,,,0.00,pywws,2013-08-04 19:01:00,
2013-08-04 12:06:00,70.7,59.2,30.02,SE,135,1.6,2.2,67,0.00,,,0.00,pywws,2013-08-04 19:06:00,
2013-08-04 12:11:00,71.2,59.7,30.02,SE,135,3.1,3.8,67,0.00,,,0.00,pywws,2013-08-04 19:11:00,
2013-08-04 12:16:00,71.8,59.4,30.01,SE,135,3.1,3.8,65,0.00,,,0.00,pywws,2013-08-04 19:16:00,
2013-08-04 12:21:00,72.5,59.6,30.01,SE,135,1.6,2.2,64,0.00,,,0.00,pywws,2013-08-04 19:21:00,
2013-08-04 12:26:00,74.3,61.8,30.01,SE,135,2.2,3.1,65,0.00,,,0.00,pywws,2013-08-04 19:26:00,
2013-08-04 12:31:00,74.1,60.7,30.01,SE,135,1.6,3.1,63,0.00,,,0.00,pywws,2013-08-04 19:31:00,
2013-08-04 12:36:00,75.2,60.8,30.01,North,-999,0.0,0.7,61,0.00,,,0.00,pywws,2013-08-04 19:36:00,
2013-08-04 12:41:00,74.3,60.0,30.01,SE,135,0.7,1.6,61,0.00,,,0.00,pywws,2013-08-04 19:41:00,
2013-08-04 12:46:00,74.8,60.5,30.01,SE,135,1.6,3.1,61,0.00,,,0.00,pywws,2013-08-04 19:46:00,
2013-08-04 12:51:00,74.8,60.0,30.01,SE,135,1.6,3.1,60,0.00,,,0.00,pywws,2013-08-04 19:51:00,
2013-08-04 12:56:00,75.0,60.6,30.01,SE,135,3.1,3.8,61,0.00,,,0.00,pywws,2013-08-04 19:56:00,
2013-08-04 13:01:00,74.8,60.0,30.01,SE,135,2.2,3.8,60,0.00,,,0.00,pywws,2013-08-04 20:01:00,
2013-08-04 13:06:00,74.8,60.0,30.01,SE,135,2.2,3.8,60,0.00,,,0.00,pywws,2013-08-04 20:06:00,
2013-08-04 13:11:00,75.2,59.4,30.00,SE,135,4.5,6.9,58,0.00,,,0.00,pywws,2013-08-04 20:11:00,
2013-08-04 13:16:00,76.8,61.4,30.01,SE,135,1.6,3.1,59,0.00,,,0.00,pywws,2013-08-04 20:16:00,
2013-08-04 13:21:00,75.6,59.7,30.01,SE,135,1.6,2.2,58,0.00,,,0.00,pywws,2013-08-04 20:21:00,
2013-08-04 13:26:00,77.0,60.6,30.00,SE,135,2.2,3.1,57,0.00,,,0.00,pywws,2013-08-04 20:26:00,
2013-08-04 13:31:00,77.4,60.9,30.00,SE,135,2.2,3.8,57,0.00,,,0.00,pywws,2013-08-04 20:31:00,
2013-08-04 13:36:00,77.4,60.9,30.00,North,-999,0.0,0.7,57,0.00,,,0.00,pywws,2013-08-04 20:36:00,
2013-08-04 13:41:00,77.5,60.6,30.00,SE,135,1.6,2.2,56,0.00,,,0.00,pywws,2013-08-04 20:41:00,
2013-08-04 13:46:00,76.5,60.6,30.00,SE,135,2.2,3.1,58,0.00,,,0.00,pywws,2013-08-04 20:46:00,
2013-08-04 13:51:00,76.6,60.2,30.00,SE,135,1.6,2.2,57,0.00,,,0.00,pywws,2013-08-04 20:51:00,
2013-08-04 13:56:00,79.2,62.1,29.99,SE,135,1.6,3.1,56,0.00,,,0.00,pywws,2013-08-04 20:56:00,
2013-08-04 14:01:00,79.2,62.1,29.99,SE,135,1.6,3.1,56,0.00,,,0.00,pywws,2013-08-04 21:01:00,
2013-08-04 14:06:00,78.4,60.9,29.99,North,-999,0.0,0.7,55,0.00,,,0.00,pywws,2013-08-04 21:06:00,
2013-08-04 14:11:00,78.6,61.1,29.99,SE,135,1.6,2.2,55,0.00,,,0.00,pywws,2013-08-04 21:11:00,
2013-08-04 14:16:00,78.3,61.3,29.99,SE,135,0.7,2.2,56,0.00,,,0.00,pywws,2013-08-04 21:16:00,
2013-08-04 14:21:00,78.6,61.6,29.98,SE,135,1.6,3.1,56,0.00,,,0.00,pywws,2013-08-04 21:21:00,
2013-08-04 14:26:00,77.7,60.8,29.98,SE,135,1.6,2.2,56,0.00,,,0.00,pywws,2013-08-04 21:26:00,
2013-08-04 14:31:00,78.1,61.1,29.98,SE,135,2.2,3.8,56,0.00,,,0.00,pywws,2013-08-04 21:31:00,
2013-08-04 14:36:00,78.3,61.8,29.98,North,-999,0.0,0.0,57,0.00,,,0.00,pywws,2013-08-04 21:36:00,
2013-08-04 14:41:00,79.2,62.1,29.98,SE,135,0.7,1.6,56,0.00,,,0.00,pywws,2013-08-04 21:41:00,
2013-08-04 14:46:00,77.9,60.9,29.98,SE,135,3.1,3.8,56,0.00,,,0.00,pywws,2013-08-04 21:46:00,
2013-08-04 14:51:00,78.8,61.2,29.97,North,-999,0.0,0.0,55,0.00,,,0.00,pywws,2013-08-04 21:51:00,
2013-08-04 14:56:00,78.6,61.6,29.97,SE,135,3.8,6.9,56,0.00,,,0.00,pywws,2013-08-04 21:56:00,
2013-08-04 15:01:00,78.4,61.4,29.97,SE,135,0.7,1.6,56,0.00,,,0.00,pywws,2013-08-04 22:01:00,
2013-08-04 15:06:00,78.4,61.4,29.97,SE,135,0.7,1.6,56,0.00,,,0.00,pywws,2013-08-04 22:06:00,
2013-08-04 15:11:00,78.4,61.4,29.97,SE,135,1.6,2.2,56,0.00,,,0.00,pywws,2013-08-04 22:11:00,
2013-08-04 15:16:00,79.2,62.1,29.96,SE,135,1.6,3.1,56,0.00,,,0.00,pywws,2013-08-04 22:16:00,
2013-08-04 15:21:00,79.5,62.4,29.96,SE,135,0.7,1.6,56,0.00,,,0.00,pywws,2013-08-04 22:21:00,
2013-08-04 15:26:00,79.2,61.1,29.96,SE,135,1.6,3.1,54,0.00,,,0.00,pywws,2013-08-04 22:26:00,
2013-08-04 15:31:00,79.7,62.6,29.96,North,-999,0.0,0.0,56,0.00,,,0.00,pywws,2013-08-04 22:31:00,
2013-08-04 15:36:00,79.2,61.6,29.96,SE,135,1.6,3.1,55,0.00,,,0.00,pywws,2013-08-04 22:36:00,
2013-08-04 15:41:00,79.9,62.8,29.95,SE,135,0.7,1.6,56,0.00,,,0.00,pywws,2013-08-04 22:41:00,
2013-08-04 15:46:00,79.9,62.2,29.96,SE,135,1.6,3.1,55,0.00,,,0.00,pywws,2013-08-04 22:46:00,
2013-08-04 15:51:00,79.7,61.6,29.95,SE,135,2.2,3.8,54,0.00,,,0.00,pywws,2013-08-04 22:51:00,
2013-08-04 15:56:00,79.7,62.6,29.96,SE,135,2.2,3.1,56,0.00,,,0.00,pywws,2013-08-04 22:56:00,
2013-08-04 16:01:00,79.2,61.1,29.95,SE,135,3.1,5.4,54,0.00,,,0.00,pywws,2013-08-04 23:01:00,
2013-08-04 16:06:00,79.7,62.1,29.95,SE,135,1.6,2.2,55,0.00,,,0.00,pywws,2013-08-04 23:06:00,
2013-08-04 16:11:00,80.1,61.9,29.95,North,-999,0.0,1.6,54,0.00,,,0.00,pywws,2013-08-04 23:11:00,
2013-08-04 16:16:00,79.9,61.7,29.95,SE,135,0.7,2.2,54,0.00,,,0.00,pywws,2013-08-04 23:16:00,
2013-08-04 16:21:00,80.1,61.9,29.95,SE,135,1.6,2.2,54,0.00,,,0.00,pywws,2013-08-04 23:21:00,
2013-08-04 16:26:00,80.6,61.3,29.94,SE,135,0.7,1.6,52,0.00,,,0.00,pywws,2013-08-04 23:26:00,
2013-08-04 16:31:00,80.8,62.0,29.94,SE,135,3.8,6.0,53,0.00,,,0.00,pywws,2013-08-04 23:31:00,
2013-08-04 16:36:00,81.0,61.7,29.94,North,-999,0.0,0.7,52,0.00,,,0.00,pywws,2013-08-04 23:36:00,
2013-08-04 16:41:00,80.8,61.5,29.94,SE,135,2.2,3.8,52,0.00,,,0.00,pywws,2013-08-04 23:41:00,
2013-08-04 16:46:00,80.2,61.5,29.94,North,-999,0.0,0.7,53,0.00,,,0.00,pywws,2013-08-04 23:46:00,
2013-08-04 16:51:00,80.4,61.7,29.94,North,-999,0.0,0.7,53,0.00,,,0.00,pywws,2013-08-04 23:51:00,
2013-08-04 16:56:00,80.6,61.9,29.94,North,-999,0.0,0.7,53,0.00,,,0.00,pywws,2013-08-04 23:56:00,
2013-08-04 17:01:00,80.1,61.9,29.93,SE,135,0.7,1.6,54,0.00,,,0.00,pywws,2013-08-05 00:01:00,
2013-08-04 17:06:00,80.1,61.9,29.93,SE,135,0.7,1.6,54,0.00,,,0.00,pywws,2013-08-05 00:06:00,
2013-08-04 17:11:00,80.2,61.5,29.93,SE,135,0.7,1.6,53,0.00,,,0.00,pywws,2013-08-05 00:11:00,
2013-08-04 17:16:00,80.1,62.9,29.93,North,-999,0.0,0.0,56,0.00,,,0.00,pywws,2013-08-05 00:16:00,
2013-08-04 17:21:00,80.8,62.0,29.93,SE,135,1.6,3.8,53,0.00,,,0.00,pywws,2013-08-05 00:21:00,
2013-08-04 17:26:00,80.6,61.9,29.93,North,-999,0.0,0.0,53,0.00,,,0.00,pywws,2013-08-05 00:26:00,
2013-08-04 17:31:00,80.1,61.9,29.93,North,-999,0.0,0.0,54,0.00,,,0.00,pywws,2013-08-05 00:31:00,
2013-08-04 17:36:00,80.1,62.4,29.93,SE,135,0.7,1.6,55,0.00,,,0.00,pywws,2013-08-05 00:36:00,
2013-08-04 17:41:00,79.7,62.6,29.93,North,-999,0.0,0.0,56,0.00,,,0.00,pywws,2013-08-05 00:41:00,
2013-08-04 17:46:00,80.2,62.1,29.93,SE,135,1.6,3.1,54,0.00,,,0.00,pywws,2013-08-05 00:46:00,
2013-08-04 17:51:00,80.2,62.1,29.93,North,-999,0.0,0.0,54,0.00,,,0.00,pywws,2013-08-05 00:51:00,
2013-08-04 17:56:00,80.1,61.9,29.93,SE,135,3.1,5.4,54,0.00,,,0.00,pywws,2013-08-05 00:56:00,
2013-08-04 18:01:00,79.9,62.2,29.93,North,-999,0.0,0.0,55,0.00,,,0.00,pywws,2013-08-05 01:01:00,
2013-08-04 18:06:00,79.5,61.9,29.93,North,-999,0.0,0.0,55,0.00,,,0.00,pywws,2013-08-05 01:06:00,
2013-08-04 18:11:00,79.0,61.4,29.93,North,-999,0.0,0.0,55,0.00,,,0.00,pywws,2013-08-05 01:11:00,
2013-08-04 18:16:00,79.0,61.9,29.93,North,-999,0.0,0.0,56,0.00,,,0.00,pywws,2013-08-05 01:16:00,
2013-08-04 18:21:00,79.5,61.9,29.92,North,-999,0.0,0.7,55,0.00,,,0.00,pywws,2013-08-05 01:21:00,
2013-08-04 18:26:00,79.0,61.9,29.92,North,-999,0.0,0.0,56,0.00,,,0.00,pywws,2013-08-05 01:26:00,
2013-08-04 18:31:00,78.1,62.6,29.93,SE,135,1.6,3.1,59,0.00,,,0.00,pywws,2013-08-05 01:31:00,
2013-08-04 18:36:00,78.4,62.4,29.92,North,-999,0.0,0.0,58,0.00,,,0.00,pywws,2013-08-05 01:36:00,
2013-08-04 18:41:00,78.8,61.2,29.92,SE,135,2.2,3.8,55,0.00,,,0.00,pywws,2013-08-05 01:41:00,
2013-08-04 18:46:00,78.4,61.9,29.92,North,-999,0.0,0.0,57,0.00,,,0.00,pywws,2013-08-05 01:46:00,
2013-08-04 18:51:00,77.5,62.5,29.92,North,-999,0.0,0.0,60,0.00,,,0.00,pywws,2013-08-05 01:51:00,
2013-08-04 18:56:00,77.9,61.4,29.92,SE,135,0.7,1.6,57,0.00,,,0.00,pywws,2013-08-05 01:56:00,
2013-08-04 19:01:00,77.5,62.1,29.92,North,-999,0.0,0.0,59,0.00,,,0.00,pywws,2013-08-05 02:01:00,
2013-08-04 19:06:00,77.5,62.1,29.92,North,-999,0.0,0.0,59,0.00,,,0.00,pywws,2013-08-05 02:06:00,
2013-08-04 19:11:00,74.8,62.3,29.92,North,-999,0.0,0.0,65,0.00,,,0.00,pywws,2013-08-05 02:11:00,
2013-08-04 19:16:00,74.3,61.8,29.92,North,-999,0.0,0.0,65,0.00,,,0.00,pywws,2013-08-05 02:16:00,
2013-08-04 19:21:00,75.6,61.6,29.92,North,-999,0.0,0.0,62,0.00,,,0.00,pywws,2013-08-05 02:21:00,
2013-08-04 19:26:00,75.2,61.3,29.93,North,-999,0.0,0.0,62,0.00,,,0.00,pywws,2013-08-05 02:26:00,
2013-08-04 19:31:00,75.2,60.8,29.92,North,-999,0.0,0.0,61,0.00,,,0.00,pywws,2013-08-05 02:31:00,
2013-08-04 19:36:00,75.7,61.3,29.93,North,-999,0.0,0.0,61,0.00,,,0.00,pywws,2013-08-05 02:36:00,
2013-08-04 19:41:00,75.2,60.8,29.93,North,-999,0.0,0.0,61,0.00,,,0.00,pywws,2013-08-05 02:41:00,
2013-08-04 19:46:00,75.7,60.4,29.93,North,-999,0.0,0.0,59,0.00,,,0.00,pywws,2013-08-05 02:46:00,
2013-08-04 19:51:00,75.6,60.7,29.93,North,-999,0.0,0.0,60,0.00,,,0.00,pywws,2013-08-05 02:51:00,
2013-08-04 19:56:00,75.2,60.3,29.93,North,-999,0.0,0.0,60,0.00,,,0.00,pywws,2013-08-05 02:56:00,
2013-08-04 20:01:00,74.7,60.8,29.93,North,-999,0.0,0.0,62,0.00,,,0.00,pywws,2013-08-05 03:01:00,
2013-08-04 20:06:00,74.5,60.6,29.93,North,-999,0.0,0.0,62,0.00,,,0.00,pywws,2013-08-05 03:06:00,
2013-08-04 20:11:00,73.8,60.4,29.93,North,-999,0.0,0.0,63,0.00,,,0.00,pywws,2013-08-05 03:11:00,
2013-08-04 20:16:00,73.8,60.4,29.93,North,-999,0.0,0.7,63,0.00,,,0.00,pywws,2013-08-05 03:16:00,
2013-08-04 20:21:00,73.6,60.2,29.93,North,-999,0.0,0.0,63,0.00,,,0.00,pywws,2013-08-05 03:21:00,
2013-08-04 20:26:00,73.0,59.7,29.93,North,-999,0.0,0.0,63,0.00,,,0.00,pywws,2013-08-05 03:26:00,
2013-08-04 20:31:00,72.9,59.5,29.93,North,-999,0.0,0.0,63,0.00,,,0.00,pywws,2013-08-05 03:31:00,
2013-08-04 20:36:00,72.3,59.4,29.93,North,-999,0.0,0.0,64,0.00,,,0.00,pywws,2013-08-05 03:36:00,
2013-08-04 20:41:00,72.0,59.1,29.94,North,-999,0.0,0.0,64,0.00,,,0.00,pywws,2013-08-05 03:41:00,
2013-08-04 20:46:00,71.6,59.2,29.94,North,-999,0.0,0.0,65,0.00,,,0.00,pywws,2013-08-05 03:46:00,
2013-08-04 20:51:00,71.2,59.7,29.94,North,-999,0.0,0.0,67,0.00,,,0.00,pywws,2013-08-05 03:51:00,
2013-08-04 20:56:00,70.9,59.4,29.94,North,-999,0.0,0.0,67,0.00,,,0.00,pywws,2013-08-05 03:56:00,
2013-08-04 21:01:00,70.3,59.3,29.94,North,-999,0.0,0.0,68,0.00,,,0.00,pywws,2013-08-05 04:01:00,
2013-08-04 21:06:00,70.3,59.3,29.95,North,-999,0.0,0.0,68,0.00,,,0.00,pywws,2013-08-05 04:06:00,
2013-08-04 21:11:00,68.9,59.5,29.95,North,-999,0.0,0.0,72,0.00,,,0.00,pywws,2013-08-05 04:11:00,
2013-08-04 21:16:00,69.1,59.7,29.95,North,-999,0.0,0.0,72,0.00,,,0.00,pywws,2013-08-05 04:16:00,
2013-08-04 21:21:00,69.3,59.8,29.95,North,-999,0.0,0.0,72,0.00,,,0.00,pywws,2013-08-05 04:21:00,
2013-08-04 21:26:00,69.4,60.0,29.95,North,-999,0.0,0.0,72,0.00,,,0.00,pywws,2013-08-05 04:26:00,
2013-08-04 21:31:00,69.4,59.6,29.95,North,-999,0.0,0.0,71,0.00,,,0.00,pywws,2013-08-05 04:31:00,
2013-08-04 21:36:00,69.4,59.6,29.96,North,-999,0.0,0.0,71,0.00,,,0.00,pywws,2013-08-05 04:36:00,
2013-08-04 21:41:00,69.4,59.6,29.95,North,-999,0.0,0.0,71,0.00,,,0.00,pywws,2013-08-05 04:41:00,
2013-08-04 21:46:00,69.1,59.7,29.96,North,-999,0.0,0.0,72,0.00,,,0.00,pywws,2013-08-05 04:46:00,
2013-08-04 21:51:00,69.4,60.0,29.96,SE,135,0.7,1.6,72,0.00,,,0.00,pywws,2013-08-05 04:51:00,
2013-08-04 21:56:00,70.0,59.7,29.96,North,-999,0.0,0.0,70,0.00,,,0.00,pywws,2013-08-05 04:56:00,
2013-08-04 22:01:00,70.2,59.5,29.96,North,-999,0.0,0.7,69,0.00,,,0.00,pywws,2013-08-05 05:01:00,
2013-08-04 22:11:00,69.4,59.6,29.96,North,-999,0.0,0.0,71,0.00,,,0.00,pywws,2013-08-05 05:11:00,
2013-08-04 22:16:00,69.3,59.4,29.96,North,-999,0.0,0.0,71,0.00,,,0.00,pywws,2013-08-05 05:16:00,
2013-08-04 22:21:00,68.9,59.1,29.96,North,-999,0.0,0.0,71,0.00,,,0.00,pywws,2013-08-05 05:21:00,
2013-08-04 22:26:00,69.1,59.3,29.96,North,-999,0.0,0.0,71,0.00,,,0.00,pywws,2013-08-05 05:26:00,
2013-08-04 22:31:00,68.7,59.3,29.96,North,-999,0.0,0.0,72,0.00,,,0.00,pywws,2013-08-05 05:31:00,
2013-08-04 22:36:00,68.4,59.0,29.96,North,-999,0.0,0.0,72,0.00,,,0.00,pywws,2013-08-05 05:36:00,
2013-08-04 22:41:00,68.4,59.0,29.97,North,-999,0.0,0.0,72,0.00,,,0.00,pywws,2013-08-05 05:41:00,
2013-08-04 22:46:00,68.2,58.8,29.97,North,-999,0.0,0.0,72,0.00,,,0.00,pywws,2013-08-05 05:46:00,
2013-08-04 22:51:00,67.6,58.7,29.97,North,-999,0.0,0.0,73,0.00,,,0.00,pywws,2013-08-05 05:51:00,
2013-08-04 22:56:00,67.6,58.7,29.97,North,-999,0.0,0.0,73,0.00,,,0.00,pywws,2013-08-05 05:56:00,
2013-08-04 23:01:00,67.5,58.5,29.97,North,-999,0.0,0.0,73,0.00,,,0.00,pywws,2013-08-05 06:01:00,
2013-08-04 23:06:00,67.5,58.5,29.98,North,-999,0.0,0.0,73,0.00,,,0.00,pywws,2013-08-05 06:06:00,
2013-08-04 23:11:00,67.1,58.5,29.97,North,-999,0.0,0.0,74,0.00,,,0.00,pywws,2013-08-05 06:11:00,
2013-08-04 23:16:00,66.7,58.2,29.97,North,-999,0.0,0.0,74,0.00,,,0.00,pywws,2013-08-05 06:16:00,
2013-08-04 23:21:00,66.6,58.0,29.97,North,-999,0.0,0.0,74,0.00,,,0.00,pywws,2013-08-05 06:21:00,
2013-08-04 23:26:00,66.2,57.7,29.98,North,-999,0.0,0.0,74,0.00,,,0.00,pywws,2013-08-05 06:26:00,
2013-08-04 23:31:00,65.8,58.1,29.98,North,-999,0.0,0.0,76,0.00,,,0.00,pywws,2013-08-05 06:31:00,
2013-08-04 23:36:00,65.7,57.9,29.98,North,-999,0.0,0.0,76,0.00,,,0.00,pywws,2013-08-05 06:36:00,
2013-08-04 23:41:00,65.7,57.9,29.98,North,-999,0.0,0.0,76,0.00,,,0.00,pywws,2013-08-05 06:41:00,
2013-08-04 23:46:00,66.2,58.0,29.97,North,-999,0.0,0.0,75,0.00,,,0.00,pywws,2013-08-05 06:46:00,
2013-08-04 23:51:00,66.7,58.6,29.97,SE,135,1.6,2.2,75,0.00,,,0.00,pywws,2013-08-05 06:51:00,
2013-08-04 23:56:00,67.1,58.5,29.98,SE,135,0.7,2.2,74,0.00,,,0.00,pywws,2013-08-05 06:56:00,